D/T METAR WX W/DIR W/SPE G/SPE TEMP DEWP
19/03/19 02:50 EGGP 190250Z 29007KT 9999 FEW005 SCT043 08/07 Q1023 WNW (290°) 8.1mph 8°C 7°C
19/03/19 02:20 EGGP 190220Z 29007KT 9999 FEW036 SCT043 08/08 Q1023 WNW (290°) 8.1mph 8°C 8°C
19/03/19 01:50 EGGP 190150Z 28007KT 9999 FEW005 SCT045 08/07 Q1023 W (280°) 8.1mph 8°C 7°C
19/03/19 01:20 EGGP 190120Z 28008KT 9999 FEW005 08/07 Q1023 W (280°) 9.2mph 8°C 7°C
19/03/19 00:50 EGGP 190050Z 28006KT 9999 FEW005 08/08 Q1023 W (280°) 6.9mph 8°C 8°C
19/03/19 00:20 EGGP 190020Z 28005KT 9999 FEW005 08/07 Q1023 W (280°) 5.8mph 8°C 7°C
18/03/19 23:50 EGGP 182350Z 28006KT 9999 SCT005 SCT039 08/07 Q1023 W (280°) 6.9mph 8°C 7°C
18/03/19 23:20 EGGP 182320Z 28006KT 9999 FEW006 08/07 Q1023 W (280°) 6.9mph 8°C 7°C
18/03/19 22:50 EGGP 182250Z 28006KT 9999 BKN006 OVC012 08/07 Q1023 W (280°) 6.9mph 8°C 7°C
18/03/19 22:20 EGGP 182220Z 28005KT 9999 FEW007 BKN014 BKN029 08/07 Q1023 W (280°) 5.8mph 8°C 7°C
18/03/19 21:50 EGGP 182150Z 26004KT 9999 BKN018 09/08 Q1022 W (260°) 4.6mph 9°C 8°C
18/03/19 21:20 EGGP 182120Z 23004KT 9999 -DZ BKN007 OVC017 08/08 Q1022 -DZ SW (230°) 4.6mph 8°C 8°C
18/03/19 20:50 EGGP 182050Z 20004KT 9000 -DZ BKN007 OVC009 08/07 Q1022 -DZ SSW (200°) 4.6mph 8°C 7°C
18/03/19 19:50 EGGP 181950Z 20005KT 9000 -DZ SCT002 BKN005 OVC008 08/07 Q1022 -DZ SSW (200°) 5.8mph 8°C 7°C
18/03/19 19:20 EGGP 181920Z 19006KT 8000 -DZ SCT002 BKN004 OVC009 08/07 Q1021 -DZ S (190°) 6.9mph 8°C 7°C
18/03/19 18:50 EGGP 181850Z 18005KT 2500 -DZ BKN001 BKN003 OVC006 08/07 Q1021 -DZ S (180°) 5.8mph 8°C 7°C
18/03/19 18:20 EGGP 181820Z 17006KT 3500 -DZ BKN001 BKN003 OVC006 08/07 Q1021 -DZ S (170°) 6.9mph 8°C 7°C
18/03/19 17:50 EGGP 181750Z 19005KT 5000 -RA SCT003 BKN004 OVC006 08/07 Q1021 -RA S (190°) 5.8mph 8°C 7°C
18/03/19 17:20 EGGP 181720Z 21005KT 9999 7000SW -SHRA SCT008 BKN010 09/08 Q1020 -SHRA SSW (210°) 5.8mph 9°C 8°C
18/03/19 16:50 EGGP 181650Z 23004KT 7000 -SHRA SCT010 BKN015 08/06 Q1020 -SHRA SW (230°) 4.6mph 8°C 6°C
18/03/19 16:20 EGGP 181620Z VRB03KT 7000 -SHRA SCT014 BKN019 08/06 Q1020 -SHRA N (0°) 3.5mph 8°C 6°C
18/03/19 15:50 EGGP 181550Z VRB02KT 9999 VCSH FEW017 SCT020 BKN026 09/06 Q1020 VCSH N (0°) 2.3mph 9°C 6°C
18/03/19 15:20 EGGP 181520Z 27005KT 9999 -RA SCT013 BKN015 BKN020 09/06 Q1020 -RA W (270°) 5.8mph 9°C 6°C
18/03/19 14:50 EGGP 181450Z 23004KT 9999 -SHRA SCT013 BKN015 08/06 Q1020 -SHRA SW (230°) 4.6mph 8°C 6°C
18/03/19 14:20 EGGP 181420Z 28008KT 9999 7000SE -SHRA SCT017 BKN019 08/05 Q1020 -SHRA W (280°) 9.2mph 8°C 5°C
18/03/19 13:50 EGGP 181350Z 29009KT 9999 VCSH FEW017 SCT025 08/05 Q1019 VCSH WNW (290°) 10.4mph 8°C 5°C
18/03/19 13:20 EGGP 181320Z 26007KT 9999 VCSH SCT018 BKN027 09/06 Q1019 VCSH W (260°) 8.1mph 9°C 6°C
18/03/19 12:50 EGGP 181250Z 25007KT 9999 VCSH FEW018 BKN020 08/05 Q1020 VCSH WSW (250°) 8.1mph 8°C 5°C
18/03/19 12:20 EGGP 181220Z 24006KT 9999 VCSH SCT014 BKN020 09/06 Q1020 VCSH WSW (240°) 6.9mph 9°C 6°C
18/03/19 11:50 EGGP 181150Z 24008KT 9999 VCSH SCT014 BKN017 08/06 Q1020 VCSH WSW (240°) 9.2mph 8°C 6°C
18/03/19 11:20 EGGP 181120Z 24007KT 9999 VCSH BKN016 08/06 Q1020 VCSH WSW (240°) 8.1mph 8°C 6°C
18/03/19 10:50 EGGP 181050Z 23005KT 9999 VCSH SCT013 BKN020 07/05 Q1020 VCSH SW (230°) 5.8mph 7°C 5°C
18/03/19 09:50 EGGP 180950Z 29006KT 9000 -RA SCT013 BKN025 07/04 Q1019 -RA WNW (290°) 6.9mph 7°C 4°C
18/03/19 09:20 EGGP 180920Z 29010KT 9000 -RA SCT013 BKN022 06/03 Q1019 -RA WNW (290°) 11.5mph 6°C 3°C
18/03/19 08:50 EGGP 180850Z 26011KT 9999 VCSH SCT014 SCT037 07/04 Q1019 VCSH W (260°) 12.7mph 7°C 4°C
18/03/19 08:20 EGGP 180820Z 27011KT 9999 VCSH FEW011 SCT029 07/05 Q1018 VCSH W (270°) 12.7mph 7°C 5°C
18/03/19 07:50 EGGP 180750Z 27013KT 9999 VCSH FEW012 SCT022 BKN043 07/05 Q1018 VCSH W (270°) 15.0mph 7°C 5°C
18/03/19 06:50 EGGP 180650Z 28007KT 9999 -RA SCT011 BKN022 05/03 Q1018 -RA W (280°) 8.1mph 5°C 3°C
18/03/19 06:20 EGGP 180620Z 31013KT 9999 5000SE RA SCT012 BKN020 04/02 Q1018 RA NW (310°) 15.0mph 4°C 2°C
18/03/19 05:50 EGGP 180550Z 28014KT 8000 RA SCT016 BKN024 06/03 Q1017 RA W (280°) 16.1mph 6°C 3°C
18/03/19 05:20 EGGP 180520Z 28010KT CAVOK 07/05 Q1017 W (280°) 11.5mph 7°C 5°C
18/03/19 04:50 EGGP 180450Z 28011KT CAVOK 06/04 Q1017 W (280°) 12.7mph 6°C 4°C
18/03/19 04:20 EGGP 180420Z 28009KT CAVOK 06/04 Q1017 W (280°) 10.4mph 6°C 4°C
18/03/19 03:50 EGGP 180350Z 29011KT CAVOK 06/04 Q1016 WNW (290°) 12.7mph 6°C 4°C
18/03/19 03:20 EGGP 180320Z 29010KT CAVOK 06/03 Q1016 WNW (290°) 11.5mph 6°C 3°C
18/03/19 02:50 EGGP 180250Z 28007KT CAVOK 06/02 Q1016 W (280°) 8.1mph 6°C 2°C
18/03/19 02:20 EGGP 180220Z 30008KT CAVOK 07/01 Q1016 WNW (300°) 9.2mph 7°C 1°C
18/03/19 01:50 EGGP 180150Z 30010KT CAVOK 07/04 Q1016 WNW (300°) 11.5mph 7°C 4°C
18/03/19 01:20 EGGP 180120Z 29012KT CAVOK 06/04 Q1016 WNW (290°) 13.8mph 6°C 4°C
18/03/19 00:50 EGGP 180050Z 29011KT CAVOK 07/04 Q1015 WNW (290°) 12.7mph 7°C 4°C
18/03/19 00:20 EGGP 180020Z 29012KT CAVOK 07/04 Q1015 WNW (290°) 13.8mph 7°C 4°C
17/03/19 23:50 EGGP 172350Z 30014KT 9999 FEW040 07/04 Q1015 WNW (300°) 16.1mph 7°C 4°C
17/03/19 23:20 EGGP 172320Z 30014KT 9999 FEW048 07/03 Q1014 WNW (300°) 16.1mph 7°C 3°C
17/03/19 22:50 EGGP 172250Z 30013KT 9999 FEW048 07/03 Q1014 WNW (300°) 15.0mph 7°C 3°C
17/03/19 22:20 EGGP 172220Z 31015KT 9999 FEW048 07/03 Q1013 NW (310°) 17.3mph 7°C 3°C
17/03/19 21:50 EGGP 172150Z 30017KT 9999 BKN022 08/04 Q1013 WNW (300°) 19.6mph 8°C 4°C
17/03/19 21:20 EGGP 172120Z 31014KT 280V350 CAVOK 08/03 Q1012 NW (310°) 16.1mph 8°C 3°C
17/03/19 20:50 EGGP 172050Z 31014KT 9999 FEW014 07/03 Q1012 NW (310°) 16.1mph 7°C 3°C
17/03/19 20:20 EGGP 172020Z 31016KT 9999 FEW012 08/04 Q1011 NW (310°) 18.4mph 8°C 4°C
17/03/19 19:50 EGGP 171950Z 31016KT 9999 SCT016 08/04 Q1011 NW (310°) 18.4mph 8°C 4°C
17/03/19 19:20 EGGP 171920Z 31018G30KT 9999 SCT015 SCT019 07/03 Q1010 NW (310°) 20.7mph 34.5mph 7°C 3°C
17/03/19 18:50 EGGP 171850Z 30016KT 9999 VCSH FEW014 SCT024 08/04 Q1009 VCSH WNW (300°) 18.4mph 8°C 4°C
17/03/19 18:20 EGGP 171820Z 30015KT 9999 VCSH SCT020 SCT024 07/04 Q1009 VCSH WNW (300°) 17.3mph 7°C 4°C
17/03/19 17:50 EGGP 171750Z 30015KT 9999 -SHRA SCT019 BKN023 BKN039 08/04 Q1008 -SHRA WNW (300°) 17.3mph 8°C 4°C
17/03/19 17:20 EGGP 171720Z 30012KT 9999 VCSH SCT019 SCT026 08/04 Q1007 VCSH WNW (300°) 13.8mph 8°C 4°C
17/03/19 16:50 EGGP 171650Z 29014KT 9999 VCSH SCT017 BKN028 09/05 Q1007 VCSH WNW (290°) 16.1mph 9°C 5°C
17/03/19 16:20 EGGP 171620Z 29015KT 9999 VCSH SCT018 BKN034 09/04 Q1006 VCSH WNW (290°) 17.3mph 9°C 4°C
17/03/19 15:20 EGGP 171520Z 28016KT 9999 VCSH SCT016 BKN033TCU 07/04 Q1005 VCSH W (280°) 18.4mph 7°C 4°C
17/03/19 14:50 EGGP 171450Z 28019KT 9999 7000E -SHRA BKN016CB 07/04 Q1005 -SHRA W (280°) 21.9mph 7°C 4°C
17/03/19 14:20 EGGP 171420Z 28021KT 9999 VCSH SCT016 SCT021CB 07/03 Q1005 VCSH W (280°) 24.2mph 7°C 3°C
17/03/19 13:50 EGGP 171350Z 27019KT 9999 SCT019TCU SCT031 07/04 Q1004 W (270°) 21.9mph 7°C 4°C
17/03/19 13:20 EGGP 171320Z 28020KT 9999 VCSH SCT023TCU 07/03 Q1004 VCSH W (280°) 23.0mph 7°C 3°C
17/03/19 12:50 EGGP 171250Z 28022G32KT 9999 -SHRA BKN028 09/03 Q1004 -SHRA W (280°) 25.3mph 36.8mph 9°C 3°C
17/03/19 12:20 EGGP 171220Z 28021KT 9999 SCT024TCU 08/02 Q1004 W (280°) 24.2mph 8°C 2°C
17/03/19 11:50 EGGP 171150Z 28022KT 9999 SCT024TCU 07/02 Q1003 W (280°) 25.3mph 7°C 2°C
17/03/19 11:20 EGGP 171120Z 27022KT 9999 SCT023TCU 07/03 Q1003 W (270°) 25.3mph 7°C 3°C
17/03/19 10:50 EGGP 171050Z 27021KT 9999 VCSH SCT028TCU 07/03 Q1003 VCSH W (270°) 24.2mph 7°C 3°C
17/03/19 10:20 EGGP 171020Z 27021KT 9999 VCSH FEW013CB SCT020 07/02 Q1002 VCSH W (270°) 24.2mph 7°C 2°C
17/03/19 09:50 EGGP 170950Z 27018KT 9999 VCSH FEW016CB SCT020 05/02 Q1002 VCSH W (270°) 20.7mph 5°C 2°C
17/03/19 09:20 EGGP 170920Z 27021KT 9999 VCSH FEW016CB SCT025 07/02 Q1002 VCSH W (270°) 24.2mph 7°C 2°C
17/03/19 08:20 EGGP 170820Z 27014KT 9999 VCSH FEW010CB BKN022 05/02 Q1001 VCSH W (270°) 16.1mph 5°C 2°C
17/03/19 07:50 EGGP 170750Z 28017KT 9999 -SHRA FEW012CB SCT020 BKN022 07/03 Q1000 -SHRA W (280°) 19.6mph 7°C 3°C
17/03/19 07:20 EGGP 170720Z 28018KT 9999 VCSH FEW012CB SCT020 BKN022 04/00 Q1000 VCSH W (280°) 20.7mph 4°C 0°C
17/03/19 06:50 EGGP 170650Z 29017G28KT 9999 VCSH FEW007CB SCT016 BKN022 05/01 Q0999 VCSH WNW (290°) 19.6mph 32.2mph 5°C 1°C
17/03/19 06:20 EGGP 170620Z 29015KT 9999 VCSH SCT016 BKN022 05/01 Q0999 VCSH WNW (290°) 17.3mph 5°C 1°C
17/03/19 05:50 EGGP 170550Z 28017KT 9999 SCT022 BKN030 BKN040 06/02 Q0998 W (280°) 19.6mph 6°C 2°C
17/03/19 05:20 EGGP 170520Z 28017KT 9999 SCT022 BKN030 05/01 Q0998 W (280°) 19.6mph 5°C 1°C
17/03/19 04:50 EGGP 170450Z 28017KT 9999 SCT022 BKN030 05/02 Q0998 W (280°) 19.6mph 5°C 2°C
17/03/19 04:20 EGGP 170420Z 28022G32KT 9999 SCT022 BKN030 04/01 Q0997 W (280°) 25.3mph 36.8mph 4°C 1°C
17/03/19 03:50 EGGP 170350Z 28018KT 9999 -SHRA BKN020 06/02 Q0997 -SHRA W (280°) 20.7mph 6°C 2°C
17/03/19 03:20 EGGP 170320Z 28020KT 9999 -SHRA BKN020 05/02 Q0997 -SHRA W (280°) 23.0mph 5°C 2°C
17/03/19 02:50 EGGP 170250Z 29014KT 9999 -SHRA BKN020 05/02 Q0996 -SHRA WNW (290°) 16.1mph 5°C 2°C
17/03/19 02:20 EGGP 170220Z 31012KT 9999 -SHRA BKN020 05/01 Q0996 -SHRA NW (310°) 13.8mph 5°C 1°C
17/03/19 01:20 EGGP 170120Z 31010KT 280V340 9999 -SHRA BKN020 04/02 Q0995 -SHRA NW (310°) 11.5mph 4°C 2°C
17/03/19 00:50 EGGP 170050Z 31012KT 9999 BKN020 05/02 Q0995 NW (310°) 13.8mph 5°C 2°C
17/03/19 00:20 EGGP 170020Z 31014KT 9999 VCSH FEW008 SCT018 BKN022 05/03 Q0995 VCSH NW (310°) 16.1mph 5°C 3°C
16/03/19 23:50 EGGP 162350Z 28014KT 9999 FEW020 SCT040 05/03 Q0994 W (280°) 16.1mph 5°C 3°C
16/03/19 23:20 EGGP 162320Z 29015KT 9999 SCT018 BKN032 BKN040 06/03 Q0994 WNW (290°) 17.3mph 6°C 3°C
16/03/19 22:50 EGGP 162250Z 29013KT 9999 SCT018 BKN024 BKN032 06/03 Q0994 WNW (290°) 15.0mph 6°C 3°C
16/03/19 22:20 EGGP 162220Z 28011KT 9000 BKN014 BKN018 06/05 Q0993 W (280°) 12.7mph 6°C 5°C
16/03/19 21:50 EGGP 162150Z 27014KT 8000 SHRA SCT010 BKN016 05/04 Q0993 SHRA W (270°) 16.1mph 5°C 4°C
16/03/19 21:20 EGGP 162120Z 29016KT 8000 -SHRA SCT012 BKN018 06/04 Q0993 -SHRA WNW (290°) 18.4mph 6°C 4°C
16/03/19 20:50 EGGP 162050Z 27012KT 9999 SCT018 SCT029 07/04 Q0992 W (270°) 13.8mph 7°C 4°C
16/03/19 20:20 EGGP 162020Z 28015KT 9999 FEW022 SCT036 07/03 Q0992 W (280°) 17.3mph 7°C 3°C
16/03/19 19:50 EGGP 161950Z 29014KT 9999 FEW023 SCT037 07/03 Q0992 WNW (290°) 16.1mph 7°C 3°C
16/03/19 19:20 EGGP 161920Z 30017KT 9999 FEW013 SCT025 07/03 Q0991 WNW (300°) 19.6mph 7°C 3°C
16/03/19 18:20 EGGP 161820Z 29018KT 9999 VCSH FEW018 SCT023 07/04 Q0990 VCSH WNW (290°) 20.7mph 7°C 4°C
16/03/19 17:50 EGGP 161750Z 28021G34KT 9999 -SHRA SCT015 SCT035 07/05 Q0990 -SHRA W (280°) 24.2mph 39.1mph 7°C 5°C
16/03/19 17:20 EGGP 161720Z 28024KT 6000 -RA SCT010 BKN014 BKN020 08/06 Q0989 -RA W (280°) 27.6mph 8°C 6°C
16/03/19 16:50 EGGP 161650Z 24021KT 7000 -RA BKN017 BKN041 10/07 Q0988 -RA WSW (240°) 24.2mph 10°C 7°C
16/03/19 16:20 EGGP 161620Z 23018G29KT 9999 -SHRA SCT024 OVC035 11/08 Q0988 -SHRA SW (230°) 20.7mph 33.4mph 11°C 8°C
16/03/19 15:50 EGGP 161550Z 23019G30KT 9999 -SHRA BKN024 OVC031 12/08 Q0988 -SHRA SW (230°) 21.9mph 34.5mph 12°C 8°C
16/03/19 15:20 EGGP 161520Z 22022KT 9999 -SHRA BKN021 OVC024 11/08 Q0988 -SHRA SW (220°) 25.3mph 11°C 8°C
16/03/19 14:50 EGGP 161450Z 22022KT 9999 -SHRA BKN021 OVC024 11/08 Q0989 -SHRA SW (220°) 25.3mph 11°C 8°C
16/03/19 13:50 EGGP 161350Z 22022G34KT 9999 -SHRA BKN028 12/08 Q0990 -SHRA SW (220°) 25.3mph 39.1mph 12°C 8°C
16/03/19 13:20 EGGP 161320Z 22023KT 9999 VCSH FEW014 BKN025 11/08 Q0990 VCSH SW (220°) 26.5mph 11°C 8°C
16/03/19 12:50 EGGP 161250Z 22023G34KT 9999 -SHRA FEW014 BKN028 12/08 Q0991 -SHRA SW (220°) 26.5mph 39.1mph 12°C 8°C
16/03/19 11:50 EGGP 161150Z 22021KT 9999 VCSH FEW014 BKN025 12/08 Q0992 VCSH SW (220°) 24.2mph 12°C 8°C
16/03/19 11:20 EGGP 161120Z 22019G31KT 9999 VCSH FEW015 BKN027 12/08 Q0992 RERA VCSH SW (220°) 21.9mph 35.7mph 12°C 8°C
16/03/19 10:20 EGGP 161020Z 21020G31KT 9999 VCSH FEW015 BKN026 12/08 Q0994 VCSH SSW (210°) 23.0mph 35.7mph 12°C 8°C
16/03/19 09:50 EGGP 160950Z 21020KT 9999 VCSH FEW015 BKN026 11/07 Q0994 VCSH SSW (210°) 23.0mph 11°C 7°C
16/03/19 09:20 EGGP 160920Z 22021KT 9999 -SHRA SCT017 BKN022 11/07 Q0994 -SHRA SW (220°) 24.2mph 11°C 7°C
16/03/19 08:50 EGGP 160850Z 22022KT 9999 -SHRA SCT017 BKN022 11/08 Q0994 -SHRA SW (220°) 25.3mph 11°C 8°C
16/03/19 07:50 EGGP 160750Z 22019KT 9999 SHRA BKN017 BKN019 10/07 Q0995 SHRA SW (220°) 21.9mph 10°C 7°C
16/03/19 07:20 EGGP 160720Z 22020KT 9999 -RA SCT017 BKN019 11/08 Q0995 -RA SW (220°) 23.0mph 11°C 8°C
16/03/19 06:50 EGGP 160650Z 22024G35KT 9999 -RA FEW010 BKN019 11/08 Q0995 -RA SW (220°) 27.6mph 40.3mph 11°C 8°C
16/03/19 06:20 EGGP 160620Z 22022KT 9999 RA FEW020 BKN026 12/09 Q0996 RA SW (220°) 25.3mph 12°C 9°C
16/03/19 05:50 EGGP 160550Z 22021KT 9999 RA FEW020 BKN026 11/08 Q0996 RA SW (220°) 24.2mph 11°C 8°C
16/03/19 04:50 EGGP 160450Z 23025G35KT 9999 RA FEW020 SCT043 11/08 Q0997 RA SW (230°) 28.8mph 40.3mph 11°C 8°C
16/03/19 04:20 EGGP 160420Z 24021KT 9999 RA BKN034 BKN044 11/08 Q0998 RA WSW (240°) 24.2mph 11°C 8°C
16/03/19 03:50 EGGP 160350Z AUTO 24018G29KT 9999 RA BKN018/// OVC033/// 11/09 Q0998 RA WSW (240°) 20.7mph 33.4mph 11°C 9°C
16/03/19 03:20 EGGP 160320Z AUTO 16006KT 8000 RA FEW003/// SCT014/// OVC018/// 07/07 Q0999 RA SSE (160°) 6.9mph 7°C 7°C
16/03/19 02:50 EGGP 160250Z AUTO 15006KT 120V190 6000 RA BKN003/// BKN010/// OVC016/// 07/07 Q1000 RERA RA SSE (150°) 6.9mph 7°C 7°C
16/03/19 02:20 EGGP 160220Z 15006KT 110V190 6000 -RA SCT006 OVC011 07/06 Q1001 -RA SSE (150°) 6.9mph 7°C 6°C
16/03/19 01:50 EGGP 160150Z 15008KT 7000 -RA BKN016 07/06 Q1002 -RA SSE (150°) 9.2mph 7°C 6°C
16/03/19 01:20 EGGP 160120Z 16008KT 110V190 7000 -RA SCT020 BKN027 07/05 Q1003 -RA SSE (160°) 9.2mph 7°C 5°C
16/03/19 00:50 EGGP 160050Z 16007KT 9999 -RA BKN027 07/05 Q1004 -RA SSE (160°) 8.1mph 7°C 5°C
16/03/19 00:20 EGGP 160020Z 19007KT 9999 -RA SCT037 BKN042 08/06 Q1004 -RA S (190°) 8.1mph 8°C 6°C
15/03/19 23:50 EGGP 152350Z 21003KT 9999 -RA SCT037 BKN042 08/06 Q1005 -RA SSW (210°) 3.5mph 8°C 6°C
15/03/19 23:20 EGGP 152320Z 20006KT 9999 -DZ SCT032 SCT049 07/04 Q1006 -DZ SSW (200°) 6.9mph 7°C 4°C
15/03/19 22:50 EGGP 152250Z 21006KT 9999 SCT032 SCT049 08/04 Q1006 SSW (210°) 6.9mph 8°C 4°C
15/03/19 22:20 EGGP 152220Z 21006KT 9999 SCT049 07/04 Q1007 SSW (210°) 6.9mph 7°C 4°C
15/03/19 21:50 EGGP 152150Z 23005KT CAVOK 08/04 Q1006 SW (230°) 5.8mph 8°C 4°C
15/03/19 21:20 EGGP 152120Z 25008KT 9999 FEW036 08/04 Q1007 WSW (250°) 9.2mph 8°C 4°C